Time;durP1;ratioP1;P1;durP2;ratioP2;P2;SDS_P1;SDS_P2;PMS_P1;PMS_P2;Temp;Humidity;BMP_temperature;BMP_pressure;BME280_temperature;BME280_humidity;BME280_pressure;Samples;Min_cycle;Max_cycle;Signal;HPM_P1;HPM_P2
2023/05/30 03:16:57;;;;;;;6.57;1.35;;;14.40;74.90;;;;;;6195484;22;94424;-74
2023/05/30 03:19:23;;;;;;;5.97;1.30;;;14.40;75.20;;;;;;6246962;22;92426;-70
2023/05/30 03:21:49;;;;;;;3.63;1.23;;;14.40;75.00;;;;;;6246706;22;92742;-70
2023/05/30 03:24:15;;;;;;;6.25;1.27;;;14.30;74.90;;;;;;6246184;22;93117;-70
2023/05/30 03:26:41;;;;;;;3.97;1.58;;;14.30;74.80;;;;;;6245078;22;92639;-71
2023/05/30 03:29:07;;;;;;;4.70;1.63;;;14.40;74.40;;;;;;6246636;22;91257;-71
2023/05/30 03:31:33;;;;;;;4.63;1.30;;;14.40;74.90;;;;;;6272777;22;93641;-71
2023/05/30 03:34:00;;;;;;;5.78;1.38;;;14.40;74.90;;;;;;6276957;22;92856;-70
2023/05/30 03:36:25;;;;;;;4.40;1.05;;;14.40;74.40;;;;;;6276716;22;93275;-71
2023/05/30 03:38:53;;;;;;;4.47;1.52;;;14.40;74.70;;;;;;6277280;22;92229;-71
2023/05/30 03:41:19;;;;;;;3.85;1.17;;;14.40;74.70;;;;;;6277893;22;93628;-73
2023/05/30 03:43:45;;;;;;;4.15;1.23;;;14.50;74.70;;;;;;6277854;22;93154;-71
2023/05/30 03:46:10;;;;;;;3.20;1.50;;;14.50;74.60;;;;;;6278069;22;92311;-71
2023/05/30 03:48:36;;;;;;;7.25;1.73;;;14.60;74.40;;;;;;6278507;22;92434;-71
2023/05/30 03:51:02;;;;;;;3.58;1.15;;;14.60;75.00;;;;;;6277691;22;93577;-72
2023/05/30 03:53:27;;;;;;;4.03;1.23;;;14.70;74.40;;;;;;6277958;22;92915;-71
2023/05/30 03:55:53;;;;;;;6.63;1.30;;;14.80;74.40;;;;;;6278510;22;92289;-70
2023/05/30 03:58:19;;;;;;;4.80;1.33;;;14.80;74.30;;;;;;6277703;22;92488;-70
2023/05/30 04:00:45;;;;;;;4.57;1.33;;;14.90;74.10;;;;;;6276938;22;94524;-71
2023/05/30 04:03:11;;;;;;;4.15;1.48;;;14.90;75.20;;;;;;6276320;22;94007;-72
2023/05/30 04:05:37;;;;;;;3.63;1.33;;;15.00;74.20;;;;;;6278451;22;92344;-71
2023/05/30 04:08:02;;;;;;;5.05;1.83;;;15.00;74.40;;;;;;6278039;22;92047;-72
2023/05/30 04:10:28;;;;;;;7.22;1.55;;;15.10;73.90;;;;;;6278156;22;93237;-70
2023/05/30 04:12:54;;;;;;;5.45;1.52;;;15.10;73.50;;;;;;6277810;22;92457;-71
2023/05/30 04:15:19;;;;;;;6.30;1.70;;;15.20;73.40;;;;;;6277861;22;92268;-70
2023/05/30 04:17:45;;;;;;;5.95;1.83;;;15.30;73.10;;;;;;6256031;22;91310;-70
2023/05/30 04:20:12;;;;;;;6.38;1.23;;;15.30;72.80;;;;;;6246346;22;93315;-71
2023/05/30 04:22:38;;;;;;;3.88;1.15;;;15.40;72.60;;;;;;6246031;22;93220;-71
2023/05/30 04:25:04;;;;;;;6.13;1.73;;;15.50;72.50;;;;;;6246622;22;93112;-71
2023/05/30 04:27:31;;;;;;;7.05;1.30;;;15.60;72.70;;;;;;6247078;22;92506;-71
2023/05/30 04:29:58;;;;;;;6.82;1.50;;;15.70;72.20;;;;;;6246480;22;94080;-70
2023/05/30 04:32:24;;;;;;;5.50;1.40;;;15.80;72.30;;;;;;6246821;22;92763;-73
2023/05/30 04:34:49;;;;;;;12.65;1.77;;;15.90;71.60;;;;;;6246831;22;92497;-71
2023/05/30 04:37:18;;;;;;;5.72;1.45;;;16.10;71.10;;;;;;6220013;22;92673;-71
2023/05/30 04:39:47;;;;;;;3.22;1.23;;;16.10;70.70;;;;;;6245961;22;93155;-72
2023/05/30 04:42:13;;;;;;;5.93;1.40;;;16.30;70.50;;;;;;6246583;22;93047;-70
2023/05/30 04:44:39;;;;;;;4.53;1.73;;;16.30;70.20;;;;;;6246599;22;92378;-71
2023/05/30 04:47:08;;;;;;;3.97;1.52;;;16.40;69.60;;;;;;6245820;22;92449;-75
2023/05/30 04:49:34;;;;;;;5.70;1.60;;;16.50;69.70;;;;;;6243849;22;95074;-75
2023/05/30 04:52:03;;;;;;;7.72;1.88;;;16.40;70.00;;;;;;6243314;22;93693;-74
2023/05/30 04:54:29;;;;;;;3.75;1.60;;;16.50;70.20;;;;;;6245134;22;92011;-74
2023/05/30 04:56:55;;;;;;;4.45;1.48;;;16.50;70.60;;;;;;6245206;22;92331;-74
2023/05/30 04:59:21;;;;;;;5.68;1.63;;;16.50;71.40;;;;;;6244686;22;93263;-74
2023/05/30 05:01:48;;;;;;;3.95;1.73;;;16.60;71.10;;;;;;6245596;22;92308;-74
2023/05/30 05:04:14;;;;;;;5.85;1.73;;;16.80;69.20;;;;;;6246137;22;93060;-74
2023/05/30 05:06:39;;;;;;;5.20;1.58;;;16.70;69.30;;;;;;6247309;22;91778;-74
2023/05/30 05:09:05;;;;;;;7.50;1.70;;;16.70;69.30;;;;;;6245301;22;92946;-74
2023/05/30 05:11:31;;;;;;;7.55;1.83;;;16.80;70.00;;;;;;6246548;22;92759;-74
2023/05/30 05:13:56;;;;;;;5.78;1.90;;;17.00;69.90;;;;;;6244098;22;93271;-75
2023/05/30 05:16:22;;;;;;;9.40;1.92;;;17.00;69.20;;;;;;6244704;22;92564;-74
2023/05/30 05:18:48;;;;;;;4.95;1.75;;;17.20;68.60;;;;;;6245354;22;93550;-74
2023/05/30 05:21:14;;;;;;;6.50;1.92;;;17.40;68.10;;;;;;6246102;22;92831;-74
2023/05/30 05:23:39;;;;;;;5.80;2.10;;;17.40;67.60;;;;;;6246390;22;92403;-74
2023/05/30 05:26:05;;;;;;;4.45;1.05;;;17.70;67.70;;;;;;6219131;22;92873;-74
2023/05/30 05:28:31;;;;;;;6.57;2.20;;;18.10;71.50;;;;;;6245427;22;92526;-74
2023/05/30 05:30:58;;;;;;;8.18;1.92;;;18.80;64.80;;;;;;6246815;22;92852;-75
2023/05/30 05:33:24;;;;;;;4.50;1.77;;;18.90;63.60;;;;;;6245091;22;92147;-74
2023/05/30 05:35:50;;;;;;;5.38;1.52;;;18.70;63.60;;;;;;6246737;22;92161;-75
2023/05/30 05:38:16;;;;;;;6.75;2.63;;;18.70;64.90;;;;;;6245433;22;93546;-73
2023/05/30 05:40:42;;;;;;;8.05;2.50;;;18.70;65.90;;;;;;6246582;22;94675;-72
2023/05/30 05:43:08;;;;;;;6.07;1.80;;;19.10;63.60;;;;;;6246323;22;92366;-72
2023/05/30 05:45:34;;;;;;;10.18;2.13;;;19.70;62.70;;;;;;6246660;22;92382;-72
2023/05/30 05:48:00;;;;;;;10.48;2.85;;;20.30;61.70;;;;;;6245951;22;92573;-72
2023/05/30 05:50:26;;;;;;;8.02;3.00;;;21.20;58.90;;;;;;6245690;22;93210;-75
2023/05/30 05:52:52;;;;;;;8.75;4.07;;;22.40;57.20;;;;;;6245025;22;92500;-72
2023/05/30 05:55:17;;;;;;;6.55;2.70;;;24.00;54.30;;;;;;6247110;22;91588;-72
2023/05/30 05:57:43;;;;;;;7.32;2.85;;;25.90;52.00;;;;;;6245804;22;92987;-74
2023/05/30 06:00:09;;;;;;;5.35;2.70;;;27.30;48.80;;;;;;6245564;22;92305;-73
2023/05/30 06:02:36;;;;;;;7.00;2.83;;;27.60;46.70;;;;;;6245666;22;93309;-72
2023/05/30 06:05:02;;;;;;;6.60;3.05;;;27.80;46.00;;;;;;6219095;22;92530;-72
2023/05/30 06:07:27;;;;;;;7.85;2.60;;;28.50;46.10;;;;;;6245769;22;92645;-75
2023/05/30 06:09:53;;;;;;;4.38;2.17;;;29.70;44.30;;;;;;6245541;22;92969;-74
2023/05/30 06:12:18;;;;;;;7.40;3.20;;;30.60;43.00;;;;;;6218920;22;93950;-73
2023/05/30 06:14:44;;;;;;;4.35;2.50;;;31.00;41.80;;;;;;6246588;22;92546;-76
2023/05/30 06:17:10;;;;;;;5.63;2.33;;;30.50;41.20;;;;;;6244523;22;93664;-72
2023/05/30 06:19:35;;;;;;;5.38;2.85;;;30.00;43.10;;;;;;6245744;22;92559;-71
2023/05/30 06:22:01;;;;;;;5.95;2.65;;;30.30;42.80;;;;;;6246033;22;92370;-72
2023/05/30 06:24:27;;;;;;;5.07;3.10;;;30.50;41.70;;;;;;6246081;22;92277;-74
2023/05/30 06:26:53;;;;;;;5.00;3.00;;;31.00;41.70;;;;;;6245117;22;94016;-73
2023/05/30 06:29:19;;;;;;;6.10;2.78;;;31.30;40.70;;;;;;6244962;22;93600;-72
2023/05/30 06:31:44;;;;;;;9.73;2.83;;;31.90;39.90;;;;;;6246280;22;92254;-72
2023/05/30 06:34:10;;;;;;;11.35;3.00;;;32.20;38.90;;;;;;6246118;22;92410;-74
2023/05/30 06:36:36;;;;;;;5.57;2.75;;;31.80;39.60;;;;;;6245042;22;93506;-72
2023/05/30 06:39:02;;;;;;;6.78;2.80;;;32.10;39.40;;;;;;6244862;22;93128;-72
2023/05/30 06:41:28;;;;;;;6.85;4.22;;;32.50;38.80;;;;;;6245482;22;92422;-76
2023/05/30 06:43:53;;;;;;;6.45;4.82;;;33.00;39.40;;;;;;6246249;22;91828;-72
2023/05/30 06:46:20;;;;;;;6.15;3.35;;;32.90;38.90;;;;;;6246585;22;92531;-72
2023/05/30 06:48:46;;;;;;;8.88;3.22;;;33.70;38.00;;;;;;6246534;22;92183;-71
2023/05/30 06:51:12;;;;;;;7.47;4.15;;;33.50;37.40;;;;;;6246481;22;93362;-71
2023/05/30 06:53:38;;;;;;;6.35;3.58;;;33.90;37.40;;;;;;6247578;22;92626;-73
2023/05/30 06:56:03;;;;;;;7.10;3.80;;;33.50;37.10;;;;;;6246809;22;93020;-72
2023/05/30 06:58:29;;;;;;;6.30;3.38;;;34.30;37.10;;;;;;6247090;22;92032;-75
2023/05/30 07:00:55;;;;;;;7.03;3.47;;;34.60;36.60;;;;;;6247098;22;91965;-72
2023/05/30 07:03:20;;;;;;;5.35;3.63;;;35.00;36.50;;;;;;6247103;22;92469;-75
2023/05/30 07:05:46;;;;;;;6.20;3.03;;;34.90;36.10;;;;;;6246785;22;93250;-73
2023/05/30 07:08:11;;;;;;;6.47;5.55;;;35.00;35.90;;;;;;6246663;22;91716;-72
2023/05/30 07:10:37;;;;;;;6.40;3.38;;;36.00;35.50;;;;;;6246861;22;92366;-73
2023/05/30 07:13:03;;;;;;;8.63;3.97;;;35.80;35.20;;;;;;6247249;22;92502;-73
2023/05/30 07:15:31;;;;;;;6.32;4.32;;;35.80;34.90;;;;;;6245804;22;94421;-72
2023/05/30 07:17:57;;;;;;;6.68;3.80;;;36.10;34.80;;;;;;6246126;22;93091;-73
2023/05/30 07:20:23;;;;;;;6.65;5.97;;;36.40;34.30;;;;;;6247384;22;92305;-73
2023/05/30 07:22:52;;;;;;;6.40;3.58;;;36.20;34.60;;;;;;6246803;22;92341;-71
2023/05/30 07:25:18;;;;;;;4.47;2.78;;;36.50;34.50;;;;;;6246229;22;93286;-73
2023/05/30 07:27:44;;;;;;;6.47;4.32;;;36.30;34.20;;;;;;6246684;22;92860;-75
2023/05/30 07:30:10;;;;;;;8.07;4.57;;;36.70;34.30;;;;;;6247462;22;92412;-73
2023/05/30 07:32:36;;;;;;;7.00;5.32;;;36.50;33.80;;;;;;6248008;22;91757;-72
2023/05/30 07:35:02;;;;;;;6.18;4.60;;;36.20;35.00;;;;;;6245915;22;93289;-74
2023/05/30 07:37:27;;;;;;;6.45;5.45;;;36.60;34.10;;;;;;6246100;22;92267;-74
2023/05/30 07:39:53;;;;;;;5.25;3.70;;;36.50;33.90;;;;;;6246473;22;93263;-72
2023/05/30 07:42:19;;;;;;;5.07;3.53;;;36.60;34.00;;;;;;6246839;22;92363;-72
2023/05/30 07:44:44;;;;;;;5.07;3.60;;;37.10;34.30;;;;;;6246180;22;93183;-72
2023/05/30 07:47:10;;;;;;;7.45;3.85;;;36.90;33.80;;;;;;6246443;22;92833;-72
2023/05/30 07:49:36;;;;;;;6.90;4.10;;;37.70;32.90;;;;;;6247160;22;92245;-72
2023/05/30 07:52:01;;;;;;;8.80;6.28;;;37.50;33.60;;;;;;6247326;22;92284;-72
2023/05/30 07:54:27;;;;;;;8.88;4.40;;;38.00;33.50;;;;;;6246210;22;93215;-72
2023/05/30 07:56:54;;;;;;;6.43;3.78;;;38.40;32.70;;;;;;6245732;22;93259;-73
2023/05/30 07:59:19;;;;;;;6.80;4.57;;;38.40;33.70;;;;;;6246962;22;92377;-72
2023/05/30 08:01:46;;;;;;;7.85;4.13;;;38.70;32.50;;;;;;6247644;22;92471;-73
2023/05/30 08:04:12;;;;;;;9.85;5.18;;;38.20;32.30;;;;;;6246248;22;94089;-73
2023/05/30 08:06:37;;;;;;;5.00;3.72;;;37.70;33.40;;;;;;6246339;22;93925;-72
2023/05/30 08:09:04;;;;;;;6.43;3.75;;;37.70;33.40;;;;;;6246737;22;92400;-72
2023/05/30 08:11:30;;;;;;;8.48;4.30;;;37.50;33.00;;;;;;6247428;22;92644;-73
2023/05/30 08:13:55;;;;;;;6.57;4.32;;;36.90;33.50;;;;;;6246828;22;93492;-71
2023/05/30 08:16:23;;;;;;;8.60;5.53;;;36.40;33.90;;;;;;6245274;22;92283;-72
2023/05/30 08:18:49;;;;;;;6.15;3.80;;;36.10;34.20;;;;;;6246839;22;92602;-72
2023/05/30 08:21:15;;;;;;;5.80;3.95;;;36.60;35.20;;;;;;6247048;22;91599;-72
2023/05/30 08:23:40;;;;;;;7.65;5.45;;;37.30;33.50;;;;;;6246304;22;92434;-72
2023/05/30 08:26:08;;;;;;;4.72;3.67;;;37.20;33.00;;;;;;6246558;22;92866;-73
2023/05/30 08:28:34;;;;;;;6.22;3.63;;;37.00;34.20;;;;;;6246010;22;93318;-71
2023/05/30 08:31:00;;;;;;;5.97;3.67;;;37.50;33.50;;;;;;6247071;22;92704;-72
2023/05/30 08:33:26;;;;;;;7.25;4.10;;;37.60;33.00;;;;;;6246472;22;92624;-72
2023/05/30 08:35:52;;;;;;;7.55;4.50;;;37.90;33.40;;;;;;6245785;22;93900;-71
2023/05/30 08:38:18;;;;;;;7.80;4.88;;;38.40;32.90;;;;;;6246913;22;92482;-74
2023/05/30 08:40:45;;;;;;;5.57;4.13;;;38.50;32.70;;;;;;6246129;22;93564;-72
2023/05/30 08:43:11;;;;;;;6.05;4.22;;;38.80;32.00;;;;;;6246431;22;92528;-74
2023/05/30 08:45:37;;;;;;;9.57;4.38;;;39.00;32.80;;;;;;6246269;22;92870;-74
2023/05/30 08:48:05;;;;;;;7.22;4.15;;;39.80;32.50;;;;;;6246348;22;92276;-73
2023/05/30 08:50:31;;;;;;;;;;;40.20;30.40;;;;;;6247785;22;92297;-73
2023/05/30 08:53:06;;;;;;;6.57;5.32;;;40.40;31.30;;;;;;6246732;22;94446;-72
2023/05/30 08:55:37;;;;;;;7.30;4.43;;;40.10;30.70;;;;;;6246218;22;92446;-72
2023/05/30 08:58:22;;;;;;;4.82;4.00;;;39.50;31.50;;;;;;6247028;22;92274;-71
2023/05/30 09:00:49;;;;;;;8.68;4.57;;;39.60;31.90;;;;;;6247109;22;92288;-74
2023/05/30 09:03:15;;;;;;;11.48;4.55;;;39.40;30.70;;;;;;6245891;22;92690;-71
2023/05/30 09:05:42;;;;;;;6.40;4.57;;;39.70;31.50;;;;;;6246084;22;93864;-73
2023/05/30 09:08:09;;;;;;;5.85;3.88;;;39.70;30.70;;;;;;6246200;22;92395;-74
2023/05/30 09:10:41;;;;;;;9.05;4.38;;;40.20;31.90;;;;;;6246962;22;91597;-72
2023/05/30 09:13:07;;;;;;;6.38;4.70;;;40.30;31.60;;;;;;6246479;22;93257;-72
2023/05/30 09:15:32;;;;;;;8.20;4.53;;;39.60;30.30;;;;;;6245477;22;92353;-72
2023/05/30 09:17:58;;;;;;;9.10;4.95;;;39.90;31.80;;;;;;6244840;22;93351;-73
2023/05/30 09:20:28;;;;;;;8.38;4.93;;;41.10;30.90;;;;;;6247248;22;92462;-73
2023/05/30 09:22:54;;;;;;;6.30;4.10;;;41.50;30.90;;;;;;6245761;22;92815;-74
2023/05/30 09:25:20;;;;;;;8.85;4.57;;;41.90;30.40;;;;;;6246012;22;92656;-73
2023/05/30 09:27:48;;;;;;;7.63;4.30;;;42.30;30.10;;;;;;6246549;22;92758;-73
2023/05/30 09:30:14;;;;;;;5.88;4.55;;;42.20;29.70;;;;;;6246623;22;92332;-74
2023/05/30 09:32:40;;;;;;;7.95;4.45;;;41.20;30.20;;;;;;6246001;22;93280;-71
2023/05/30 09:35:12;;;;;;;9.52;4.68;;;41.30;30.50;;;;;;6246255;22;92546;-72
2023/05/30 09:37:43;;;;;;;8.38;6.65;;;41.50;30.40;;;;;;6246609;22;92320;-75
2023/05/30 09:40:15;;;;;;;7.45;5.15;;;41.90;30.50;;;;;;6247077;22;92284;-72
2023/05/30 09:42:52;;;;;;;6.88;4.75;;;41.70;30.70;;;;;;6244910;22;94003;-73
2023/05/30 09:45:22;;;;;;;9.38;5.18;;;41.60;30.50;;;;;;6246412;22;93145;-73
2023/05/30 09:47:50;;;;;;;9.93;4.22;;;41.10;30.20;;;;;;6245992;22;92342;-72
2023/05/30 09:50:17;;;;;;;;;;;41.30;30.60;;;;;;6246705;22;92254;-72
2023/05/30 09:52:44;;;;;;;7.65;4.32;;;41.40;30.50;;;;;;6244048;22;93139;-73
2023/05/30 09:55:13;;;;;;;7.47;3.60;;;40.80;30.20;;;;;;6244329;22;92541;-71
2023/05/30 09:57:40;;;;;;;11.52;4.00;;;40.10;30.80;;;;;;6246039;22;92457;-71
2023/05/30 10:00:13;;;;;;;6.22;4.32;;;39.10;32.10;;;;;;6244340;22;91629;-73
2023/05/30 10:02:41;;;;;;;7.20;4.43;;;38.60;32.60;;;;;;6244000;22;92566;-74
2023/05/30 10:05:27;;;;;;;7.40;4.00;;;37.80;34.50;;;;;;6240494;22;92498;-71
2023/05/30 10:07:55;;;;;;;6.75;3.65;;;36.60;34.80;;;;;;6241680;22;93237;-70
2023/05/30 10:10:21;;;;;;;7.13;3.15;;;35.40;35.60;;;;;;6244930;22;92343;-70
2023/05/30 10:12:51;;;;;;;7.95;2.70;;;34.20;38.20;;;;;;6243270;22;92632;-71
2023/05/30 10:15:19;;;;;;;4.85;2.58;;;32.70;38.80;;;;;;6244254;22;92506;-71
2023/05/30 10:17:55;;;;;;;6.63;3.72;;;32.30;40.60;;;;;;6242776;22;92256;-73
2023/05/30 10:20:24;;;;;;;8.80;3.05;;;31.40;41.10;;;;;;6246467;22;92283;-71
2023/05/30 10:22:54;;;;;;;7.85;2.38;;;30.40;41.90;;;;;;6245750;22;93128;-72
2023/05/30 10:25:21;;;;;;;4.30;2.45;;;30.10;42.50;;;;;;6245722;22;94530;-71
2023/05/30 10:27:52;;;;;;;5.40;2.47;;;29.80;44.40;;;;;;6245132;22;92498;-71
2023/05/30 10:30:28;;;;;;;6.07;2.45;;;29.50;44.20;;;;;;6243849;22;92348;-72
2023/05/30 10:33:06;;;;;;;7.20;2.20;;;29.40;44.80;;;;;;6243534;22;94705;-73
2023/05/30 10:35:33;;;;;;;5.60;2.22;;;29.30;43.80;;;;;;6243295;22;93131;-71
2023/05/30 10:37:59;;;;;;;6.03;2.83;;;29.30;45.30;;;;;;6244810;22;92045;-72
2023/05/30 10:40:34;;;;;;;7.50;2.58;;;29.10;44.80;;;;;;6242993;22;92024;-71
2023/05/30 10:43:11;;;;;;;9.15;2.33;;;28.90;45.80;;;;;;6241312;22;93199;-71
2023/05/30 10:45:54;;;;;;;7.57;1.90;;;28.60;45.50;;;;;;6243318;22;92546;-70
2023/05/30 10:48:43;;;;;;;3.90;2.15;;;28.50;45.80;;;;;;6243696;22;92435;-70
2023/05/30 10:51:10;;;;;;;13.05;2.38;;;28.40;45.80;;;;;;6245371;22;91547;-74
2023/05/30 10:53:44;;;;;;;8.25;2.80;;;28.40;45.60;;;;;;6242592;22;92977;-71
2023/05/30 10:56:29;;;;;;;5.75;1.83;;;28.40;47.10;;;;;;6242903;22;92566;-71
2023/05/30 10:58:55;;;;;;;6.07;2.03;;;28.40;47.00;;;;;;6243790;22;93311;-70
2023/05/30 11:01:28;;;;;;;8.38;2.08;;;28.30;46.20;;;;;;6245389;22;92308;-70
2023/05/30 11:04:12;;;;;;;7.90;2.00;;;28.30;47.10;;;;;;6246624;22;93204;-70
2023/05/30 11:06:44;;;;;;;6.72;2.80;;;28.30;48.10;;;;;;6219362;22;93811;-70
2023/05/30 11:09:17;;;;;;;8.73;2.40;;;28.40;47.20;;;;;;6246987;22;92553;-70
2023/05/30 11:12:06;;;;;;;7.03;2.08;;;28.40;46.00;;;;;;6245787;22;92502;-71
2023/05/30 11:14:34;;;;;;;4.95;1.77;;;28.50;47.10;;;;;;6243604;22;93083;-69
2023/05/30 11:17:03;;;;;;;5.38;2.20;;;28.40;46.80;;;;;;6244388;22;92759;-70
2023/05/30 11:19:43;;;;;;;7.10;1.88;;;28.30;47.30;;;;;;6244716;22;92503;-71
2023/05/30 11:22:17;;;;;;;7.07;1.90;;;28.30;47.20;;;;;;6245288;22;92347;-71
2023/05/30 11:24:44;;;;;;;7.68;2.20;;;28.30;47.80;;;;;;6240320;22;94011;-71
2023/05/30 11:27:13;;;;;;;8.43;2.13;;;28.30;47.80;;;;;;6243830;22;93239;-72
2023/05/30 11:29:47;;;;;;;11.35;2.47;;;28.30;47.20;;;;;;6244213;22;92362;-70
2023/05/30 11:32:18;;;;;;;6.47;2.35;;;28.40;46.30;;;;;;6244448;22;92850;-70
2023/05/30 11:34:44;;;;;;;7.88;2.20;;;28.50;46.90;;;;;;6245223;22;92606;-71
2023/05/30 11:37:11;;;;;;;8.80;2.45;;;28.50;46.70;;;;;;6246156;22;92324;-71
2023/05/30 11:39:37;;;;;;;12.98;2.30;;;28.60;47.20;;;;;;6246552;22;92315;-71
2023/05/30 11:42:05;;;;;;;7.25;2.60;;;28.70;46.70;;;;;;6246717;22;91569;-70
2023/05/30 11:44:31;;;;;;;5.47;2.45;;;28.80;46.90;;;;;;6245577;22;92656;-70
2023/05/30 11:47:03;;;;;;;6.78;2.42;;;28.60;47.30;;;;;;6244871;22;93110;-71
2023/05/30 11:49:29;;;;;;;8.55;2.63;;;28.60;47.70;;;;;;6246110;22;93294;-71
2023/05/30 11:51:54;;;;;;;6.00;2.78;;;28.50;47.90;;;;;;6247369;22;92368;-72
2023/05/30 11:54:21;;;;;;;10.32;3.67;;;28.50;47.00;;;;;;6246086;22;93602;-71
2023/05/30 11:56:47;;;;;;;7.43;2.40;;;28.50;47.70;;;;;;6246805;22;93095;-69
2023/05/30 11:59:40;;;;;;;7.20;2.10;;;28.60;46.70;;;;;;6246648;22;92161;-70
2023/05/30 12:02:06;;;;;;;9.63;3.13;;;28.60;46.40;;;;;;6242305;22;92525;-69
2023/05/30 12:04:34;;;;;;;7.88;2.40;;;28.70;45.10;;;;;;6245911;22;92812;-70
2023/05/30 12:07:02;;;;;;;5.93;2.28;;;28.60;46.30;;;;;;6246760;22;92699;-70
2023/05/30 12:09:29;;;;;;;5.13;2.17;;;28.60;46.90;;;;;;6246531;22;92627;-70
2023/05/30 12:11:59;;;;;;;5.85;2.63;;;28.60;46.50;;;;;;6247444;22;92442;-70
2023/05/30 12:14:49;;;;;;;6.55;2.55;;;28.40;44.30;;;;;;6245539;22;93234;-73
2023/05/30 12:17:21;;;;;;;7.05;2.15;;;28.30;46.90;;;;;;6230513;22;93454;-71
2023/05/30 12:19:54;;;;;;;6.90;2.42;;;28.40;46.20;;;;;;6247240;22;92275;-71
2023/05/30 12:22:20;;;;;;;5.75;2.72;;;28.60;48.00;;;;;;6247105;22;92863;-72
2023/05/30 12:24:46;;;;;;;3.97;1.95;;;28.70;45.70;;;;;;6246417;22;92617;-71
2023/05/30 12:27:17;;;;;;;10.30;2.20;;;28.70;46.80;;;;;;6246337;22;92854;-70
2023/05/30 12:29:43;;;;;;;6.35;2.30;;;28.80;47.90;;;;;;6246686;22;92384;-70
2023/05/30 12:32:08;;;;;;;4.32;2.22;;;28.70;46.20;;;;;;6247366;22;91490;-70
2023/05/30 12:34:37;;;;;;;7.93;3.17;;;28.70;45.90;;;;;;6246220;22;92367;-70
2023/05/30 12:37:05;;;;;;;;;;;28.60;46.20;;;;;;6247008;22;92547;-71
2023/05/30 12:39:32;;;;;;;6.18;1.95;;;28.60;46.60;;;;;;6247871;22;93284;-70
2023/05/30 12:41:58;;;;;;;6.22;2.13;;;28.60;46.80;;;;;;6246961;22;92474;-71
2023/05/30 12:44:23;;;;;;;7.13;2.40;;;28.60;46.70;;;;;;6245753;22;93424;-71
2023/05/30 12:46:49;;;;;;;6.30;1.95;;;28.60;46.20;;;;;;6246221;22;92704;-74
2023/05/30 12:49:15;;;;;;;5.93;2.45;;;28.50;47.00;;;;;;6246513;22;92313;-70
2023/05/30 12:51:41;;;;;;;5.95;2.47;;;28.20;45.90;;;;;;6246904;22;92488;-71
2023/05/30 12:54:08;;;;;;;9.43;2.33;;;28.40;48.30;;;;;;6246347;22;92301;-70
2023/05/30 12:56:33;;;;;;;5.97;2.55;;;28.60;47.10;;;;;;6246858;22;93354;-71
2023/05/30 12:58:59;;;;;;;7.70;2.22;;;28.70;45.90;;;;;;6247039;22;92534;-74
2023/05/30 13:01:25;;;;;;;4.10;2.15;;;28.70;47.50;;;;;;6247091;22;92313;-72
2023/05/30 13:03:50;;;;;;;4.53;2.05;;;28.70;47.10;;;;;;6245540;22;93829;-70
2023/05/30 13:06:16;;;;;;;8.32;2.30;;;28.90;47.60;;;;;;6246066;22;94155;-71
2023/05/30 13:08:42;;;;;;;6.47;2.58;;;28.80;43.60;;;;;;6246749;22;92344;-71
2023/05/30 13:11:07;;;;;;;5.75;2.58;;;28.70;42.00;;;;;;6246445;22;92598;-72
2023/05/30 13:13:33;;;;;;;4.20;2.10;;;28.60;43.50;;;;;;6246167;22;92576;-73
2023/05/30 13:15:59;;;;;;;6.63;2.63;;;28.50;42.90;;;;;;6246706;22;92683;-72
2023/05/30 13:18:24;;;;;;;7.53;3.40;;;28.60;42.90;;;;;;6246308;22;92816;-71
2023/05/30 13:20:50;;;;;;;6.80;2.45;;;28.60;42.80;;;;;;6247412;22;91232;-74
2023/05/30 13:23:16;;;;;;;5.22;3.20;;;28.50;43.90;;;;;;6245688;22;92642;-71
2023/05/30 13:25:42;;;;;;;10.05;2.45;;;28.50;42.30;;;;;;6245687;22;93324;-72
2023/05/30 13:28:07;;;;;;;5.00;2.38;;;28.20;45.00;;;;;;6245782;22;93295;-71
2023/05/30 13:30:35;;;;;;;4.78;2.20;;;28.20;43.70;;;;;;6246858;22;92653;-71
2023/05/30 13:33:00;;;;;;;5.55;2.30;;;28.20;43.90;;;;;;6246302;22;93098;-73
2023/05/30 13:35:26;;;;;;;5.75;2.08;;;28.30;43.40;;;;;;6245826;22;92767;-72
2023/05/30 13:37:53;;;;;;;6.38;2.50;;;28.40;43.60;;;;;;6247135;22;92628;-74
2023/05/30 13:40:18;;;;;;;8.20;2.30;;;28.80;44.30;;;;;;6246536;22;92333;-74
2023/05/30 13:42:44;;;;;;;7.18;2.25;;;28.70;41.00;;;;;;6246048;22;92469;-72
2023/05/30 13:45:10;;;;;;;5.88;2.28;;;28.30;43.10;;;;;;6245727;22;92784;-71
2023/05/30 13:47:36;;;;;;;9.38;2.10;;;28.30;43.70;;;;;;6246069;22;92311;-70
2023/05/30 13:50:02;;;;;;;4.65;2.30;;;28.40;44.50;;;;;;6246204;22;92036;-72
2023/05/30 13:52:27;;;;;;;4.32;1.92;;;28.30;42.80;;;;;;6244910;22;93653;-73
2023/05/30 13:54:53;;;;;;;6.93;2.20;;;27.90;42.50;;;;;;6246476;22;93851;-72
2023/05/30 13:57:19;;;;;;;3.85;2.33;;;28.20;44.70;;;;;;6246925;22;92093;-73
2023/05/30 13:59:45;;;;;;;5.63;2.20;;;28.10;42.90;;;;;;6247870;22;92343;-73
2023/05/30 14:02:10;;;;;;;5.15;2.30;;;27.90;44.50;;;;;;6243550;22;92461;-71
2023/05/30 14:04:36;;;;;;;12.10;2.10;;;27.80;43.90;;;;;;6245279;22;92649;-73
2023/05/30 14:07:02;;;;;;;4.65;2.03;;;27.90;45.20;;;;;;6218979;22;92382;-73
2023/05/30 14:09:28;;;;;;;8.48;1.90;;;27.70;43.20;;;;;;6247017;22;91313;-72
2023/05/30 14:11:53;;;;;;;4.65;1.90;;;27.50;43.90;;;;;;6246013;22;92668;-74
2023/05/30 14:14:21;;;;;;;5.38;2.30;;;27.20;44.20;;;;;;6246966;22;92522;-71
2023/05/30 14:16:47;;;;;;;4.10;2.17;;;27.10;43.50;;;;;;6245537;22;93059;-71
2023/05/30 14:19:12;;;;;;;5.72;2.15;;;27.10;44.60;;;;;;6246591;22;92616;-73
2023/05/30 14:21:39;;;;;;;4.32;1.98;;;27.10;43.60;;;;;;6245844;22;93040;-71
2023/05/30 14:24:05;;;;;;;4.40;2.30;;;27.00;44.70;;;;;;6245230;22;92748;-72
2023/05/30 14:26:33;;;;;;;11.98;2.03;;;26.80;45.00;;;;;;6245720;22;92371;-71
2023/05/30 14:29:01;;;;;;;8.52;2.30;;;26.50;44.30;;;;;;6246151;22;91958;-73
2023/05/30 14:31:27;;;;;;;8.27;2.38;;;26.40;44.90;;;;;;6246489;22;92773;-73
2023/05/30 14:33:52;;;;;;;4.22;2.03;;;26.30;45.60;;;;;;6246280;22;93415;-71
2023/05/30 14:36:18;;;;;;;5.18;1.90;;;26.30;45.80;;;;;;6245674;22;92489;-71
2023/05/30 14:38:44;;;;;;;6.13;2.20;;;26.20;45.30;;;;;;6246095;22;92504;-71
2023/05/30 14:41:09;;;;;;;6.05;1.92;;;26.20;45.70;;;;;;6245484;22;94201;-74
2023/05/30 14:43:35;;;;;;;5.93;2.33;;;26.20;45.30;;;;;;6246825;22;93050;-74
2023/05/30 14:46:00;;;;;;;4.90;1.88;;;26.30;45.10;;;;;;6247126;22;92670;-72
2023/05/30 14:48:26;;;;;;;5.63;1.83;;;26.50;46.30;;;;;;6246966;22;92548;-72
2023/05/30 14:50:52;;;;;;;8.20;2.22;;;26.70;45.20;;;;;;6246693;22;92551;-72
2023/05/30 14:53:18;;;;;;;8.05;2.47;;;26.80;45.50;;;;;;6247207;22;92484;-70
2023/05/30 14:55:43;;;;;;;6.32;2.15;;;26.90;45.50;;;;;;6248204;22;92266;-71
2023/05/30 14:58:09;;;;;;;6.07;2.30;;;27.00;44.00;;;;;;6247194;22;91874;-73
2023/05/30 15:00:35;;;;;;;3.80;2.08;;;27.00;45.20;;;;;;6246648;22;93189;-71
2023/05/30 15:03:01;;;;;;;7.63;2.03;;;27.00;44.30;;;;;;6246084;22;93231;-73
2023/05/30 15:05:27;;;;;;;5.43;2.40;;;27.00;45.80;;;;;;6246361;22;93134;-71
2023/05/30 15:07:52;;;;;;;6.97;2.42;;;27.10;45.10;;;;;;6246964;22;92065;-71
2023/05/30 15:10:18;;;;;;;4.57;2.03;;;27.00;42.90;;;;;;6246993;22;93169;-72
2023/05/30 15:12:47;;;;;;;6.50;2.05;;;27.00;43.50;;;;;;6246755;22;92915;-72
2023/05/30 15:15:12;;;;;;;3.63;1.58;;;27.20;44.10;;;;;;6247134;22;92177;-70
2023/05/30 15:17:38;;;;;;;4.38;2.00;;;26.90;44.20;;;;;;6246142;22;92607;-73
2023/05/30 15:20:05;;;;;;;7.32;2.03;;;26.70;43.90;;;;;;6246609;22;92635;-73
2023/05/30 15:22:31;;;;;;;5.13;1.60;;;26.80;44.50;;;;;;6246325;22;93315;-72
2023/05/30 15:24:57;;;;;;;8.52;2.05;;;26.70;43.60;;;;;;6247364;22;92228;-72
2023/05/30 15:27:22;;;;;;;3.45;1.88;;;26.60;43.40;;;;;;6245119;22;92528;-72
2023/05/30 15:29:48;;;;;;;4.85;1.85;;;26.40;43.70;;;;;;6243458;22;94120;-72
2023/05/30 15:32:14;;;;;;;5.90;2.22;;;26.20;44.60;;;;;;6244078;22;93079;-73
2023/05/30 15:34:42;;;;;;;6.93;1.83;;;25.90;44.20;;;;;;6244605;22;91997;-71
2023/05/30 15:37:08;;;;;;;7.43;1.60;;;25.80;44.90;;;;;;6245297;22;92387;-71
2023/05/30 15:39:34;;;;;;;4.78;1.90;;;25.60;44.20;;;;;;6244355;22;93081;-72
2023/05/30 15:42:01;;;;;;;6.53;1.58;;;25.40;44.40;;;;;;6244177;22;93841;-71
2023/05/30 15:44:27;;;;;;;5.90;1.80;;;25.40;44.70;;;;;;6245148;22;92319;-73
2023/05/30 15:46:58;;;;;;;5.68;1.75;;;25.30;44.10;;;;;;6217712;22;91911;-71
2023/05/30 15:49:27;;;;;;;5.25;1.45;;;25.20;45.30;;;;;;6243568;22;93696;-71
2023/05/30 15:51:54;;;;;;;7.18;1.75;;;25.30;43.90;;;;;;6242813;22;93294;-73
2023/05/30 15:54:27;;;;;;;5.78;1.73;;;25.40;44.00;;;;;;6243575;22;93418;-72
2023/05/30 15:56:53;;;;;;;5.05;1.92;;;25.60;44.30;;;;;;6245272;22;92483;-72
2023/05/30 15:59:18;;;;;;;10.38;1.92;;;25.70;43.50;;;;;;6245549;22;93434;-72
2023/05/30 16:01:44;;;;;;;6.85;1.70;;;25.80;42.40;;;;;;6217285;22;96134;-73
2023/05/30 16:04:10;;;;;;;6.53;2.15;;;25.90;42.70;;;;;;6246067;22;92359;-75